Terminal Aerodrome Forecast
Issued by NWS Chicago, IL

Home | Current Version | Previous Version | Graphics & Text | Print | Product List | Glossary On
Versions: 1 2 3 4 5 6 7 8 9 10 11 12 13 14 15 16 17 18 19 20 21 22 23 24
000
FTUS43 KLOT 181125
TAFRFD
TAF
KRFD 181125Z 1812/1912 27011KT P6SM SCT025
     FM181500 29012G18KT P6SM SCT040 BKN250
     FM190000 33003KT P6SM SCT040 OVC070 PROB30 1902/1907 5SM -SHRA=

USA.gov is the U.S. government's official web portal to all federal, state and local government web resources and services.